sensor_id;sensor_type;location;lat;lon;timestamp;P1;durP1;ratioP1;P2;durP2;ratioP2
2892;SDS011;1456;51.840;12.184;2023-06-14T09:07:38;10.30;;;10.20;;
2892;SDS011;1456;51.840;12.184;2023-06-14T09:10:08;10.50;;;10.40;;
2892;SDS011;1456;51.840;12.184;2023-06-14T09:12:35;9.47;;;9.37;;
2892;SDS011;1456;51.840;12.184;2023-06-14T09:15:02;9.60;;;9.50;;
2892;SDS011;1456;51.840;12.184;2023-06-14T09:17:33;10.20;;;9.90;;
2892;SDS011;1456;51.840;12.184;2023-06-14T09:20:03;10.50;;;10.30;;
2892;SDS011;1456;51.840;12.184;2023-06-14T09:22:38;10.10;;;9.90;;
2892;SDS011;1456;51.840;12.184;2023-06-14T09:25:04;11.17;;;10.77;;
2892;SDS011;1456;51.840;12.184;2023-06-14T09:27:31;10.00;;;9.90;;
2892;SDS011;1456;51.840;12.184;2023-06-14T09:29:57;9.60;;;9.50;;
2892;SDS011;1456;51.840;12.184;2023-06-14T09:32:23;10.00;;;9.90;;
2892;SDS011;1456;51.840;12.184;2023-06-14T09:34:50;11.17;;;10.87;;
2892;SDS011;1456;51.840;12.184;2023-06-14T09:37:30;10.50;;;10.30;;
2892;SDS011;1456;51.840;12.184;2023-06-14T09:39:57;10.30;;;10.10;;
2892;SDS011;1456;51.840;12.184;2023-06-14T09:42:23;9.70;;;9.40;;
2892;SDS011;1456;51.840;12.184;2023-06-14T09:44:54;9.77;;;9.67;;
2892;SDS011;1456;51.840;12.184;2023-06-14T09:47:21;10.20;;;10.00;;
2892;SDS011;1456;51.840;12.184;2023-06-14T09:49:48;10.17;;;10.07;;
2892;SDS011;1456;51.840;12.184;2023-06-14T09:52:15;13.90;;;11.00;;
2892;SDS011;1456;51.840;12.184;2023-06-14T09:54:43;11.17;;;10.93;;
2892;SDS011;1456;51.840;12.184;2023-06-14T09:57:11;11.00;;;10.80;;
2892;SDS011;1456;51.840;12.184;2023-06-14T09:59:42;10.70;;;10.40;;
2892;SDS011;1456;51.840;12.184;2023-06-14T10:02:28;10.50;;;10.30;;
2892;SDS011;1456;51.840;12.184;2023-06-14T10:05:05;11.17;;;10.80;;
2892;SDS011;1456;51.840;12.184;2023-06-14T10:07:37;11.50;;;11.20;;
2892;SDS011;1456;51.840;12.184;2023-06-14T10:10:05;10.60;;;10.40;;
2892;SDS011;1456;51.840;12.184;2023-06-14T10:12:33;10.00;;;9.80;;
2892;SDS011;1456;51.840;12.184;2023-06-14T10:14:59;10.63;;;10.33;;
2892;SDS011;1456;51.840;12.184;2023-06-14T10:22:42;9.60;;;9.50;;
2892;SDS011;1456;51.840;12.184;2023-06-14T10:25:28;10.60;;;10.40;;
2892;SDS011;1456;51.840;12.184;2023-06-14T10:31:03;10.80;;;10.60;;
2892;SDS011;1456;51.840;12.184;2023-06-14T10:33:49;9.47;;;9.37;;
2892;SDS011;1456;51.840;12.184;2023-06-14T10:41:50;10.93;;;10.73;;
2892;SDS011;1456;51.840;12.184;2023-06-14T10:46:48;11.10;;;10.90;;
2892;SDS011;1456;51.840;12.184;2023-06-14T10:49:21;12.83;;;12.13;;
2892;SDS011;1456;51.840;12.184;2023-06-14T10:52:09;11.43;;;11.13;;
2892;SDS011;1456;51.840;12.184;2023-06-14T10:55:27;11.20;;;10.80;;
2892;SDS011;1456;51.840;12.184;2023-06-14T10:57:29;11.93;;;11.63;;
2892;SDS011;1456;51.840;12.184;2023-06-14T11:00:02;11.07;;;10.83;;
2892;SDS011;1456;51.840;12.184;2023-06-14T11:05:56;10.93;;;10.73;;
2892;SDS011;1456;51.840;12.184;2023-06-14T11:08:39;12.20;;;11.90;;
2892;SDS011;1456;51.840;12.184;2023-06-14T11:11:12;11.70;;;11.40;;
2892;SDS011;1456;51.840;12.184;2023-06-14T11:13:39;11.73;;;11.50;;
2892;SDS011;1456;51.840;12.184;2023-06-14T11:16:13;11.60;;;11.30;;
2892;SDS011;1456;51.840;12.184;2023-06-14T11:18:40;11.40;;;11.20;;
2892;SDS011;1456;51.840;12.184;2023-06-14T11:21:07;11.60;;;11.10;;
2892;SDS011;1456;51.840;12.184;2023-06-14T11:23:34;10.87;;;10.60;;
2892;SDS011;1456;51.840;12.184;2023-06-14T11:26:00;11.40;;;11.10;;
2892;SDS011;1456;51.840;12.184;2023-06-14T11:28:35;10.23;;;10.13;;
2892;SDS011;1456;51.840;12.184;2023-06-14T11:31:02;10.50;;;10.30;;
2892;SDS011;1456;51.840;12.184;2023-06-14T11:33:28;10.70;;;10.40;;
2892;SDS011;1456;51.840;12.184;2023-06-14T11:35:54;10.40;;;10.20;;
2892;SDS011;1456;51.840;12.184;2023-06-14T11:38:20;10.73;;;10.53;;
2892;SDS011;1456;51.840;12.184;2023-06-14T11:40:46;10.90;;;10.70;;
2892;SDS011;1456;51.840;12.184;2023-06-14T11:43:12;11.13;;;10.90;;
2892;SDS011;1456;51.840;12.184;2023-06-14T11:45:39;10.63;;;10.43;;
2892;SDS011;1456;51.840;12.184;2023-06-14T11:48:06;11.20;;;10.90;;
2892;SDS011;1456;51.840;12.184;2023-06-14T11:50:31;10.67;;;10.47;;
2892;SDS011;1456;51.840;12.184;2023-06-14T11:53:01;11.13;;;10.93;;
2892;SDS011;1456;51.840;12.184;2023-06-14T11:55:35;11.03;;;10.87;;
2892;SDS011;1456;51.840;12.184;2023-06-14T11:58:05;10.27;;;10.17;;
2892;SDS011;1456;51.840;12.184;2023-06-14T12:00:31;10.33;;;10.23;;
2892;SDS011;1456;51.840;12.184;2023-06-14T12:02:57;10.70;;;10.50;;
2892;SDS011;1456;51.840;12.184;2023-06-14T12:05:23;12.03;;;11.83;;
2892;SDS011;1456;51.840;12.184;2023-06-14T12:07:57;11.53;;;11.33;;
2892;SDS011;1456;51.840;12.184;2023-06-14T12:10:25;11.83;;;11.60;;
2892;SDS011;1456;51.840;12.184;2023-06-14T12:12:56;10.17;;;10.07;;
2892;SDS011;1456;51.840;12.184;2023-06-14T12:15:27;9.77;;;9.67;;
2892;SDS011;1456;51.840;12.184;2023-06-14T12:17:54;10.10;;;10.00;;
2892;SDS011;1456;51.840;12.184;2023-06-14T12:20:20;10.20;;;10.10;;
2892;SDS011;1456;51.840;12.184;2023-06-14T12:22:53;10.10;;;9.90;;
2892;SDS011;1456;51.840;12.184;2023-06-14T12:25:39;10.50;;;10.30;;
2892;SDS011;1456;51.840;12.184;2023-06-14T12:28:05;11.80;;;11.40;;
2892;SDS011;1456;51.840;12.184;2023-06-14T12:30:34;11.80;;;11.50;;
2892;SDS011;1456;51.840;12.184;2023-06-14T12:33:05;11.33;;;11.03;;
2892;SDS011;1456;51.840;12.184;2023-06-14T12:35:32;11.10;;;10.83;;
2892;SDS011;1456;51.840;12.184;2023-06-14T12:37:58;9.50;;;9.30;;
2892;SDS011;1456;51.840;12.184;2023-06-14T12:40:24;9.80;;;9.70;;
2892;SDS011;1456;51.840;12.184;2023-06-14T12:42:49;10.43;;;10.23;;
2892;SDS011;1456;51.840;12.184;2023-06-14T12:45:15;10.63;;;10.33;;
2892;SDS011;1456;51.840;12.184;2023-06-14T12:47:41;10.40;;;10.20;;
2892;SDS011;1456;51.840;12.184;2023-06-14T12:50:07;10.33;;;10.13;;
2892;SDS011;1456;51.840;12.184;2023-06-14T12:52:33;10.90;;;10.60;;
2892;SDS011;1456;51.840;12.184;2023-06-14T12:55:03;10.47;;;10.23;;
2892;SDS011;1456;51.840;12.184;2023-06-14T12:57:30;11.37;;;11.17;;
2892;SDS011;1456;51.840;12.184;2023-06-14T12:59:55;10.53;;;10.33;;
2892;SDS011;1456;51.840;12.184;2023-06-14T13:02:21;11.20;;;11.00;;
2892;SDS011;1456;51.840;12.184;2023-06-14T13:04:49;10.47;;;10.00;;
2892;SDS011;1456;51.840;12.184;2023-06-14T13:07:15;10.60;;;10.40;;
2892;SDS011;1456;51.840;12.184;2023-06-14T13:09:42;9.73;;;9.63;;
2892;SDS011;1456;51.840;12.184;2023-06-14T13:12:09;9.47;;;9.27;;
2892;SDS011;1456;51.840;12.184;2023-06-14T13:14:39;10.37;;;10.07;;
2892;SDS011;1456;51.840;12.184;2023-06-14T13:17:07;10.53;;;10.33;;
2892;SDS011;1456;51.840;12.184;2023-06-14T13:19:34;11.00;;;10.70;;
2892;SDS011;1456;51.840;12.184;2023-06-14T13:22:00;10.77;;;10.57;;
2892;SDS011;1456;51.840;12.184;2023-06-14T13:24:25;10.27;;;10.07;;
2892;SDS011;1456;51.840;12.184;2023-06-14T13:26:51;9.93;;;9.67;;
2892;SDS011;1456;51.840;12.184;2023-06-14T13:29:17;9.80;;;9.70;;
2892;SDS011;1456;51.840;12.184;2023-06-14T13:31:43;10.20;;;10.00;;
2892;SDS011;1456;51.840;12.184;2023-06-14T13:34:08;10.53;;;9.67;;
2892;SDS011;1456;51.840;12.184;2023-06-14T13:36:34;10.23;;;10.03;;
2892;SDS011;1456;51.840;12.184;2023-06-14T13:39:00;10.27;;;10.07;;
2892;SDS011;1456;51.840;12.184;2023-06-14T13:41:27;10.00;;;9.80;;
2892;SDS011;1456;51.840;12.184;2023-06-14T13:43:57;10.93;;;10.70;;
2892;SDS011;1456;51.840;12.184;2023-06-14T13:46:23;10.33;;;10.23;;
2892;SDS011;1456;51.840;12.184;2023-06-14T13:48:49;10.80;;;10.50;;
2892;SDS011;1456;51.840;12.184;2023-06-14T13:51:15;11.63;;;11.33;;
2892;SDS011;1456;51.840;12.184;2023-06-14T13:53:42;11.10;;;10.70;;
2892;SDS011;1456;51.840;12.184;2023-06-14T13:56:10;11.37;;;10.90;;
2892;SDS011;1456;51.840;12.184;2023-06-14T13:58:37;11.77;;;11.10;;
2892;SDS011;1456;51.840;12.184;2023-06-14T14:01:03;11.20;;;11.00;;
2892;SDS011;1456;51.840;12.184;2023-06-14T14:03:28;12.27;;;12.00;;
2892;SDS011;1456;51.840;12.184;2023-06-14T14:05:54;11.60;;;11.30;;
2892;SDS011;1456;51.840;12.184;2023-06-14T14:08:20;10.80;;;10.50;;
2892;SDS011;1456;51.840;12.184;2023-06-14T14:10:45;11.13;;;10.83;;
2892;SDS011;1456;51.840;12.184;2023-06-14T14:13:11;10.50;;;10.27;;
2892;SDS011;1456;51.840;12.184;2023-06-14T14:15:37;11.23;;;10.87;;
2892;SDS011;1456;51.840;12.184;2023-06-14T14:18:03;11.00;;;10.70;;
2892;SDS011;1456;51.840;12.184;2023-06-14T14:20:30;11.40;;;11.10;;
2892;SDS011;1456;51.840;12.184;2023-06-14T14:22:56;10.83;;;10.63;;
2892;SDS011;1456;51.840;12.184;2023-06-14T14:25:22;11.53;;;11.30;;
2892;SDS011;1456;51.840;12.184;2023-06-14T14:27:48;11.80;;;11.60;;
2892;SDS011;1456;51.840;12.184;2023-06-14T14:30:13;11.30;;;11.00;;
2892;SDS011;1456;51.840;12.184;2023-06-14T14:32:41;11.70;;;11.40;;
2892;SDS011;1456;51.840;12.184;2023-06-14T14:35:08;11.07;;;10.83;;
2892;SDS011;1456;51.840;12.184;2023-06-14T14:37:34;10.50;;;10.40;;
2892;SDS011;1456;51.840;12.184;2023-06-14T14:40:00;10.73;;;10.53;;
2892;SDS011;1456;51.840;12.184;2023-06-14T14:42:25;11.03;;;10.73;;
2892;SDS011;1456;51.840;12.184;2023-06-14T14:44:52;11.30;;;11.00;;
2892;SDS011;1456;51.840;12.184;2023-06-14T14:47:17;10.50;;;10.27;;
2892;SDS011;1456;51.840;12.184;2023-06-14T14:49:43;11.27;;;10.97;;
2892;SDS011;1456;51.840;12.184;2023-06-14T14:52:09;10.40;;;10.20;;
2892;SDS011;1456;51.840;12.184;2023-06-14T14:54:34;10.80;;;10.50;;
2892;SDS011;1456;51.840;12.184;2023-06-14T14:57:04;11.10;;;10.90;;
2892;SDS011;1456;51.840;12.184;2023-06-14T14:59:30;12.37;;;11.10;;
2892;SDS011;1456;51.840;12.184;2023-06-14T15:01:56;10.67;;;10.47;;
2892;SDS011;1456;51.840;12.184;2023-06-14T15:04:21;11.00;;;10.80;;
2892;SDS011;1456;51.840;12.184;2023-06-14T15:06:47;10.00;;;9.80;;
2892;SDS011;1456;51.840;12.184;2023-06-14T15:09:13;10.97;;;10.77;;
2892;SDS011;1456;51.840;12.184;2023-06-14T15:11:39;10.00;;;9.87;;
2892;SDS011;1456;51.840;12.184;2023-06-14T15:14:05;9.83;;;9.70;;
2892;SDS011;1456;51.840;12.184;2023-06-14T15:16:31;10.77;;;10.43;;
2892;SDS011;1456;51.840;12.184;2023-06-14T15:18:56;10.00;;;9.80;;
2892;SDS011;1456;51.840;12.184;2023-06-14T15:21:22;10.63;;;10.40;;
2892;SDS011;1456;51.840;12.184;2023-06-14T15:23:49;10.50;;;10.30;;
2892;SDS011;1456;51.840;12.184;2023-06-14T15:26:16;10.20;;;10.10;;
2892;SDS011;1456;51.840;12.184;2023-06-14T15:28:41;11.90;;;11.30;;
2892;SDS011;1456;51.840;12.184;2023-06-14T15:31:07;10.40;;;10.20;;
2892;SDS011;1456;51.840;12.184;2023-06-14T15:33:34;11.00;;;10.40;;
2892;SDS011;1456;51.840;12.184;2023-06-14T15:35:59;10.83;;;10.63;;
2892;SDS011;1456;51.840;12.184;2023-06-14T15:38:25;11.40;;;11.00;;
2892;SDS011;1456;51.840;12.184;2023-06-14T15:40:51;10.60;;;10.40;;
2892;SDS011;1456;51.840;12.184;2023-06-14T15:43:16;11.43;;;11.23;;
2892;SDS011;1456;51.840;12.184;2023-06-14T15:45:42;11.17;;;10.97;;
2892;SDS011;1456;51.840;12.184;2023-06-14T15:48:09;12.00;;;11.60;;
2892;SDS011;1456;51.840;12.184;2023-06-14T15:50:35;11.40;;;11.10;;
2892;SDS011;1456;51.840;12.184;2023-06-14T15:53:01;11.73;;;11.50;;
2892;SDS011;1456;51.840;12.184;2023-06-14T15:55:27;10.77;;;10.60;;
2892;SDS011;1456;51.840;12.184;2023-06-14T15:57:53;10.53;;;10.40;;
2892;SDS011;1456;51.840;12.184;2023-06-14T16:00:19;11.37;;;11.17;;
2892;SDS011;1456;51.840;12.184;2023-06-14T16:02:45;11.27;;;11.07;;
2892;SDS011;1456;51.840;12.184;2023-06-14T16:05:11;11.10;;;10.80;;
2892;SDS011;1456;51.840;12.184;2023-06-14T16:07:38;10.40;;;10.20;;
2892;SDS011;1456;51.840;12.184;2023-06-14T16:10:03;11.47;;;11.17;;
2892;SDS011;1456;51.840;12.184;2023-06-14T16:12:29;11.03;;;10.83;;
2892;SDS011;1456;51.840;12.184;2023-06-14T16:14:55;10.93;;;10.70;;
2892;SDS011;1456;51.840;12.184;2023-06-14T16:17:21;10.30;;;10.10;;
2892;SDS011;1456;51.840;12.184;2023-06-14T16:19:47;11.30;;;10.80;;
2892;SDS011;1456;51.840;12.184;2023-06-14T16:22:12;10.03;;;9.83;;
2892;SDS011;1456;51.840;12.184;2023-06-14T16:24:38;10.10;;;9.90;;
2892;SDS011;1456;51.840;12.184;2023-06-14T16:27:04;10.10;;;10.00;;
2892;SDS011;1456;51.840;12.184;2023-06-14T16:29:31;10.30;;;10.00;;
2892;SDS011;1456;51.840;12.184;2023-06-14T16:31:57;10.13;;;9.83;;
2892;SDS011;1456;51.840;12.184;2023-06-14T16:34:22;10.53;;;10.33;;
2892;SDS011;1456;51.840;12.184;2023-06-14T16:36:48;9.50;;;9.40;;
2892;SDS011;1456;51.840;12.184;2023-06-14T16:39:14;10.10;;;9.90;;
2892;SDS011;1456;51.840;12.184;2023-06-14T16:41:40;9.98;;;9.77;;
2892;SDS011;1456;51.840;12.184;2023-06-14T16:44:06;10.80;;;10.60;;
2892;SDS011;1456;51.840;12.184;2023-06-14T16:46:32;10.40;;;10.20;;
2892;SDS011;1456;51.840;12.184;2023-06-14T16:48:59;9.93;;;9.63;;
2892;SDS011;1456;51.840;12.184;2023-06-14T16:51:26;10.47;;;10.27;;
2892;SDS011;1456;51.840;12.184;2023-06-14T16:53:52;12.07;;;11.67;;
2892;SDS011;1456;51.840;12.184;2023-06-14T16:56:21;10.90;;;10.60;;
2892;SDS011;1456;51.840;12.184;2023-06-14T16:58:54;9.90;;;9.70;;
2892;SDS011;1456;51.840;12.184;2023-06-14T17:01:20;10.48;;;10.27;;
2892;SDS011;1456;51.840;12.184;2023-06-14T17:03:47;10.23;;;10.10;;
2892;SDS011;1456;51.840;12.184;2023-06-14T17:06:12;9.80;;;9.60;;
2892;SDS011;1456;51.840;12.184;2023-06-14T17:08:39;9.63;;;9.50;;
2892;SDS011;1456;51.840;12.184;2023-06-14T17:11:05;10.20;;;10.00;;
2892;SDS011;1456;51.840;12.184;2023-06-14T17:13:32;10.43;;;10.13;;
2892;SDS011;1456;51.840;12.184;2023-06-14T17:15:58;11.77;;;11.20;;
2892;SDS011;1456;51.840;12.184;2023-06-14T17:18:24;10.80;;;10.60;;
2892;SDS011;1456;51.840;12.184;2023-06-14T17:20:50;10.53;;;10.43;;
2892;SDS011;1456;51.840;12.184;2023-06-14T17:23:15;11.13;;;10.83;;
2892;SDS011;1456;51.840;12.184;2023-06-14T17:25:41;10.70;;;10.40;;
2892;SDS011;1456;51.840;12.184;2023-06-14T17:28:06;9.10;;;8.90;;
2892;SDS011;1456;51.840;12.184;2023-06-14T17:30:32;10.40;;;10.30;;
2892;SDS011;1456;51.840;12.184;2023-06-14T17:32:58;10.00;;;9.80;;
2892;SDS011;1456;51.840;12.184;2023-06-14T17:35:24;10.00;;;9.80;;
2892;SDS011;1456;51.840;12.184;2023-06-14T17:37:49;10.50;;;10.30;;
2892;SDS011;1456;51.840;12.184;2023-06-14T17:40:15;9.80;;;9.70;;
2892;SDS011;1456;51.840;12.184;2023-06-14T17:42:41;10.00;;;9.80;;
2892;SDS011;1456;51.840;12.184;2023-06-14T17:45:07;11.33;;;11.13;;
2892;SDS011;1456;51.840;12.184;2023-06-14T17:47:33;10.80;;;10.40;;
2892;SDS011;1456;51.840;12.184;2023-06-14T17:50:01;9.33;;;9.23;;
2892;SDS011;1456;51.840;12.184;2023-06-14T17:52:31;9.03;;;8.93;;
2892;SDS011;1456;51.840;12.184;2023-06-14T17:54:57;9.50;;;9.40;;
2892;SDS011;1456;51.840;12.184;2023-06-14T17:57:22;9.97;;;9.77;;
2892;SDS011;1456;51.840;12.184;2023-06-14T17:59:51;9.40;;;9.30;;
2892;SDS011;1456;51.840;12.184;2023-06-14T18:02:19;9.53;;;9.43;;
2892;SDS011;1456;51.840;12.184;2023-06-14T18:04:45;10.00;;;9.90;;
2892;SDS011;1456;51.840;12.184;2023-06-14T18:07:11;9.00;;;8.90;;
2892;SDS011;1456;51.840;12.184;2023-06-14T18:09:36;9.77;;;9.67;;
2892;SDS011;1456;51.840;12.184;2023-06-14T18:12:02;8.80;;;8.70;;
2892;SDS011;1456;51.840;12.184;2023-06-14T18:14:28;9.67;;;9.47;;
2892;SDS011;1456;51.840;12.184;2023-06-14T18:16:54;8.63;;;8.53;;
2892;SDS011;1456;51.840;12.184;2023-06-14T18:19:21;9.00;;;8.90;;
2892;SDS011;1456;51.840;12.184;2023-06-14T18:21:51;9.63;;;9.43;;
2892;SDS011;1456;51.840;12.184;2023-06-14T18:24:17;10.30;;;10.10;;
2892;SDS011;1456;51.840;12.184;2023-06-14T18:26:43;9.67;;;9.37;;
2892;SDS011;1456;51.840;12.184;2023-06-14T18:29:08;9.50;;;9.30;;
2892;SDS011;1456;51.840;12.184;2023-06-14T18:31:34;9.40;;;9.30;;
2892;SDS011;1456;51.840;12.184;2023-06-14T18:34:00;10.30;;;9.80;;
2892;SDS011;1456;51.840;12.184;2023-06-14T18:36:26;8.90;;;8.70;;
2892;SDS011;1456;51.840;12.184;2023-06-14T18:38:51;10.00;;;9.80;;
2892;SDS011;1456;51.840;12.184;2023-06-14T18:41:17;9.63;;;9.40;;
2892;SDS011;1456;51.840;12.184;2023-06-14T18:43:43;9.57;;;9.47;;
2892;SDS011;1456;51.840;12.184;2023-06-14T18:46:09;8.97;;;8.87;;
2892;SDS011;1456;51.840;12.184;2023-06-14T18:48:35;8.40;;;8.30;;
2892;SDS011;1456;51.840;12.184;2023-06-14T18:51:02;10.13;;;9.83;;
2892;SDS011;1456;51.840;12.184;2023-06-14T18:53:28;8.80;;;8.60;;
2892;SDS011;1456;51.840;12.184;2023-06-14T18:55:54;8.53;;;8.43;;
2892;SDS011;1456;51.840;12.184;2023-06-14T18:58:20;9.70;;;9.50;;
2892;SDS011;1456;51.840;12.184;2023-06-14T19:00:46;8.60;;;8.50;;
2892;SDS011;1456;51.840;12.184;2023-06-14T19:03:12;8.30;;;8.20;;
2892;SDS011;1456;51.840;12.184;2023-06-14T19:05:38;9.50;;;9.30;;
2892;SDS011;1456;51.840;12.184;2023-06-14T19:08:04;8.50;;;8.40;;
2892;SDS011;1456;51.840;12.184;2023-06-14T19:10:30;8.67;;;8.57;;
2892;SDS011;1456;51.840;12.184;2023-06-14T19:12:56;10.30;;;10.20;;
2892;SDS011;1456;51.840;12.184;2023-06-14T19:15:22;8.77;;;8.17;;
2892;SDS011;1456;51.840;12.184;2023-06-14T19:17:55;8.70;;;8.40;;
2892;SDS011;1456;51.840;12.184;2023-06-14T19:20:27;8.67;;;8.57;;
2892;SDS011;1456;51.840;12.184;2023-06-14T19:22:53;8.10;;;8.00;;
2892;SDS011;1456;51.840;12.184;2023-06-14T19:25:19;8.80;;;8.60;;
2892;SDS011;1456;51.840;12.184;2023-06-14T19:27:47;9.00;;;8.80;;
2892;SDS011;1456;51.840;12.184;2023-06-14T19:30:14;8.40;;;8.30;;
2892;SDS011;1456;51.840;12.184;2023-06-14T19:32:40;8.50;;;8.30;;
2892;SDS011;1456;51.840;12.184;2023-06-14T19:35:09;8.20;;;8.10;;
2892;SDS011;1456;51.840;12.184;2023-06-14T19:37:35;8.23;;;8.13;;
2892;SDS011;1456;51.840;12.184;2023-06-14T19:40:02;9.10;;;8.90;;
2892;SDS011;1456;51.840;12.184;2023-06-14T19:42:28;10.53;;;10.33;;
2892;SDS011;1456;51.840;12.184;2023-06-14T19:44:54;9.43;;;9.33;;
2892;SDS011;1456;51.840;12.184;2023-06-14T19:47:21;9.37;;;9.20;;
2892;SDS011;1456;51.840;12.184;2023-06-14T19:49:48;9.07;;;8.87;;
2892;SDS011;1456;51.840;12.184;2023-06-14T19:52:13;8.60;;;8.50;;
2892;SDS011;1456;51.840;12.184;2023-06-14T19:54:39;9.10;;;8.97;;
2892;SDS011;1456;51.840;12.184;2023-06-14T19:57:05;9.33;;;9.17;;
2892;SDS011;1456;51.840;12.184;2023-06-14T19:59:31;10.60;;;10.27;;
2892;SDS011;1456;51.840;12.184;2023-06-14T20:01:57;10.03;;;9.77;;
2892;SDS011;1456;51.840;12.184;2023-06-14T20:04:23;8.93;;;8.83;;
2892;SDS011;1456;51.840;12.184;2023-06-14T20:06:49;8.97;;;8.87;;
2892;SDS011;1456;51.840;12.184;2023-06-14T20:09:23;9.77;;;9.63;;
2892;SDS011;1456;51.840;12.184;2023-06-14T20:11:51;33.10;;;10.97;;
2892;SDS011;1456;51.840;12.184;2023-06-14T20:14:17;8.93;;;8.50;;
2892;SDS011;1456;51.840;12.184;2023-06-14T20:16:43;9.17;;;8.47;;
2892;SDS011;1456;51.840;12.184;2023-06-14T20:19:09;11.47;;;10.70;;
2892;SDS011;1456;51.840;12.184;2023-06-14T20:21:35;9.63;;;9.43;;
2892;SDS011;1456;51.840;12.184;2023-06-14T20:24:01;9.60;;;9.40;;
2892;SDS011;1456;51.840;12.184;2023-06-14T20:26:27;8.70;;;8.60;;
2892;SDS011;1456;51.840;12.184;2023-06-14T20:28:53;10.07;;;9.43;;
2892;SDS011;1456;51.840;12.184;2023-06-14T20:31:20;9.00;;;8.90;;
2892;SDS011;1456;51.840;12.184;2023-06-14T20:33:47;9.23;;;9.13;;
2892;SDS011;1456;51.840;12.184;2023-06-14T20:36:12;9.40;;;9.30;;
2892;SDS011;1456;51.840;12.184;2023-06-14T20:38:38;8.87;;;8.77;;
2892;SDS011;1456;51.840;12.184;2023-06-14T20:41:04;8.30;;;8.20;;
2892;SDS011;1456;51.840;12.184;2023-06-14T20:43:30;8.40;;;8.30;;
2892;SDS011;1456;51.840;12.184;2023-06-14T20:45:55;8.80;;;8.70;;
2892;SDS011;1456;51.840;12.184;2023-06-14T20:48:22;9.00;;;8.90;;
2892;SDS011;1456;51.840;12.184;2023-06-14T20:50:48;9.40;;;9.20;;
2892;SDS011;1456;51.840;12.184;2023-06-14T20:53:14;8.90;;;8.80;;
2892;SDS011;1456;51.840;12.184;2023-06-14T20:55:40;9.30;;;9.10;;
2892;SDS011;1456;51.840;12.184;2023-06-14T20:58:06;9.23;;;9.13;;
2892;SDS011;1456;51.840;12.184;2023-06-14T21:00:33;9.37;;;9.17;;
2892;SDS011;1456;51.840;12.184;2023-06-14T21:03:01;9.23;;;9.13;;
2892;SDS011;1456;51.840;12.184;2023-06-14T21:05:30;9.30;;;9.20;;
2892;SDS011;1456;51.840;12.184;2023-06-14T21:07:58;9.00;;;8.90;;
2892;SDS011;1456;51.840;12.184;2023-06-14T21:10:24;8.77;;;8.67;;
2892;SDS011;1456;51.840;12.184;2023-06-14T21:12:57;8.67;;;8.57;;
2892;SDS011;1456;51.840;12.184;2023-06-14T21:15:23;9.47;;;9.30;;
2892;SDS011;1456;51.840;12.184;2023-06-14T21:17:53;10.20;;;9.73;;
2892;SDS011;1456;51.840;12.184;2023-06-14T21:20:20;9.63;;;9.43;;
2892;SDS011;1456;51.840;12.184;2023-06-14T21:22:46;9.67;;;9.57;;
2892;SDS011;1456;51.840;12.184;2023-06-14T21:25:13;9.40;;;9.30;;
2892;SDS011;1456;51.840;12.184;2023-06-14T21:27:39;9.40;;;9.30;;
2892;SDS011;1456;51.840;12.184;2023-06-14T21:30:05;9.43;;;9.33;;
2892;SDS011;1456;51.840;12.184;2023-06-14T21:32:33;11.03;;;10.73;;
2892;SDS011;1456;51.840;12.184;2023-06-14T21:34:59;9.07;;;8.97;;
2892;SDS011;1456;51.840;12.184;2023-06-14T21:37:26;9.50;;;9.40;;
2892;SDS011;1456;51.840;12.184;2023-06-14T21:39:51;9.00;;;8.70;;
2892;SDS011;1456;51.840;12.184;2023-06-14T21:42:17;8.73;;;8.63;;
2892;SDS011;1456;51.840;12.184;2023-06-14T21:44:44;8.67;;;8.57;;
2892;SDS011;1456;51.840;12.184;2023-06-14T21:47:11;9.67;;;9.33;;
2892;SDS011;1456;51.840;12.184;2023-06-14T21:49:38;8.97;;;8.87;;
2892;SDS011;1456;51.840;12.184;2023-06-14T21:52:04;9.13;;;8.93;;
2892;SDS011;1456;51.840;12.184;2023-06-14T21:54:30;9.20;;;9.10;;
2892;SDS011;1456;51.840;12.184;2023-06-14T21:56:56;9.23;;;9.13;;
2892;SDS011;1456;51.840;12.184;2023-06-14T21:59:22;8.37;;;8.17;;
2892;SDS011;1456;51.840;12.184;2023-06-14T22:01:48;8.00;;;7.90;;
2892;SDS011;1456;51.840;12.184;2023-06-14T22:04:13;7.70;;;7.60;;
2892;SDS011;1456;51.840;12.184;2023-06-14T22:06:40;7.70;;;7.60;;
2892;SDS011;1456;51.840;12.184;2023-06-14T22:09:09;8.63;;;8.43;;
2892;SDS011;1456;51.840;12.184;2023-06-14T22:11:37;8.33;;;8.23;;
2892;SDS011;1456;51.840;12.184;2023-06-14T22:14:06;7.83;;;7.73;;
2892;SDS011;1456;51.840;12.184;2023-06-14T22:16:34;8.53;;;8.23;;
2892;SDS011;1456;51.840;12.184;2023-06-14T22:19:00;8.20;;;8.10;;
2892;SDS011;1456;51.840;12.184;2023-06-14T22:21:28;7.83;;;7.73;;
2892;SDS011;1456;51.840;12.184;2023-06-14T22:23:57;8.07;;;7.97;;
2892;SDS011;1456;51.840;12.184;2023-06-14T22:26:23;7.37;;;7.27;;
2892;SDS011;1456;51.840;12.184;2023-06-14T22:28:51;7.70;;;7.60;;
2892;SDS011;1456;51.840;12.184;2023-06-14T22:31:17;7.83;;;7.73;;
2892;SDS011;1456;51.840;12.184;2023-06-14T22:33:43;6.60;;;6.57;;
2892;SDS011;1456;51.840;12.184;2023-06-14T22:36:11;7.33;;;7.23;;
2892;SDS011;1456;51.840;12.184;2023-06-14T22:38:40;7.10;;;7.00;;
2892;SDS011;1456;51.840;12.184;2023-06-14T22:41:07;7.97;;;7.83;;
2892;SDS011;1456;51.840;12.184;2023-06-14T22:43:43;7.53;;;7.43;;
2892;SDS011;1456;51.840;12.184;2023-06-14T22:46:10;7.20;;;7.10;;
2892;SDS011;1456;51.840;12.184;2023-06-14T22:48:44;6.83;;;6.73;;
2892;SDS011;1456;51.840;12.184;2023-06-14T22:51:13;8.13;;;8.03;;
2892;SDS011;1456;51.840;12.184;2023-06-14T22:53:40;7.67;;;7.57;;
2892;SDS011;1456;51.840;12.184;2023-06-14T22:56:06;7.87;;;7.77;;
2892;SDS011;1456;51.840;12.184;2023-06-14T22:58:33;7.87;;;7.70;;
2892;SDS011;1456;51.840;12.184;2023-06-14T23:01:00;8.33;;;8.23;;
2892;SDS011;1456;51.840;12.184;2023-06-14T23:03:26;7.20;;;7.10;;
2892;SDS011;1456;51.840;12.184;2023-06-14T23:05:53;7.90;;;7.80;;
2892;SDS011;1456;51.840;12.184;2023-06-14T23:08:21;8.20;;;8.10;;
2892;SDS011;1456;51.840;12.184;2023-06-14T23:10:47;7.97;;;7.77;;
2892;SDS011;1456;51.840;12.184;2023-06-14T23:13:14;7.97;;;7.87;;
2892;SDS011;1456;51.840;12.184;2023-06-14T23:15:41;9.40;;;9.07;;
2892;SDS011;1456;51.840;12.184;2023-06-14T23:18:07;7.53;;;7.33;;
2892;SDS011;1456;51.840;12.184;2023-06-14T23:20:33;7.90;;;7.70;;
2892;SDS011;1456;51.840;12.184;2023-06-14T23:23:01;7.77;;;7.67;;
2892;SDS011;1456;51.840;12.184;2023-06-14T23:25:29;8.13;;;7.93;;
2892;SDS011;1456;51.840;12.184;2023-06-14T23:27:59;6.80;;;6.70;;
2892;SDS011;1456;51.840;12.184;2023-06-14T23:30:33;7.30;;;7.13;;
2892;SDS011;1456;51.840;12.184;2023-06-14T23:33:01;7.53;;;7.43;;
2892;SDS011;1456;51.840;12.184;2023-06-14T23:35:27;7.80;;;7.60;;
2892;SDS011;1456;51.840;12.184;2023-06-14T23:37:55;6.43;;;6.33;;
2892;SDS011;1456;51.840;12.184;2023-06-14T23:40:23;7.37;;;7.17;;
2892;SDS011;1456;51.840;12.184;2023-06-14T23:42:50;6.80;;;6.70;;
2892;SDS011;1456;51.840;12.184;2023-06-14T23:45:16;9.23;;;9.03;;
2892;SDS011;1456;51.840;12.184;2023-06-14T23:47:42;6.77;;;6.67;;
2892;SDS011;1456;51.840;12.184;2023-06-14T23:50:08;7.83;;;7.73;;
2892;SDS011;1456;51.840;12.184;2023-06-14T23:52:37;7.07;;;6.97;;
2892;SDS011;1456;51.840;12.184;2023-06-14T23:55:05;6.63;;;6.53;;
2892;SDS011;1456;51.840;12.184;2023-06-14T23:57:31;6.60;;;6.50;;
2892;SDS011;1456;51.840;12.184;2023-06-14T23:59:57;6.10;;;6.00;;
